sensor_id;sensor_type;location;lat;lon;timestamp;P1;durP1;ratioP1;P2;durP2;ratioP2
52786;SDS011;38661;53.152;5.846;2022-07-21T00:00:40;24.60;;;20.45;;
52786;SDS011;38661;53.152;5.846;2022-07-21T00:03:06;28.85;;;21.15;;
52786;SDS011;38661;53.152;5.846;2022-07-21T00:05:32;24.83;;;20.90;;
52786;SDS011;38661;53.152;5.846;2022-07-21T00:07:57;26.38;;;22.00;;
52786;SDS011;38661;53.152;5.846;2022-07-21T00:10:24;26.17;;;20.90;;
52786;SDS011;38661;53.152;5.846;2022-07-21T00:12:50;27.13;;;22.70;;
52786;SDS011;38661;53.152;5.846;2022-07-21T00:15:17;25.45;;;22.70;;
52786;SDS011;38661;53.152;5.846;2022-07-21T00:17:46;27.65;;;23.90;;
52786;SDS011;38661;53.152;5.846;2022-07-21T00:20:12;30.08;;;25.15;;
52786;SDS011;38661;53.152;5.846;2022-07-21T00:22:39;28.95;;;25.65;;
52786;SDS011;38661;53.152;5.846;2022-07-21T00:25:06;32.97;;;27.38;;
52786;SDS011;38661;53.152;5.846;2022-07-21T00:27:33;31.52;;;27.35;;
52786;SDS011;38661;53.152;5.846;2022-07-21T00:29:59;31.17;;;26.02;;
52786;SDS011;38661;53.152;5.846;2022-07-21T00:32:24;30.48;;;26.13;;
52786;SDS011;38661;53.152;5.846;2022-07-21T00:34:50;38.00;;;26.90;;
52786;SDS011;38661;53.152;5.846;2022-07-21T00:37:16;30.40;;;26.92;;
52786;SDS011;38661;53.152;5.846;2022-07-21T00:39:42;30.38;;;26.20;;
52786;SDS011;38661;53.152;5.846;2022-07-21T00:42:08;36.40;;;27.25;;
52786;SDS011;38661;53.152;5.846;2022-07-21T00:44:44;38.03;;;28.75;;
52786;SDS011;38661;53.152;5.846;2022-07-21T00:47:09;34.17;;;28.23;;
52786;SDS011;38661;53.152;5.846;2022-07-21T00:49:35;35.80;;;30.38;;
52786;SDS011;38661;53.152;5.846;2022-07-21T00:52:01;32.47;;;28.60;;
52786;SDS011;38661;53.152;5.846;2022-07-21T00:54:26;38.22;;;30.88;;
52786;SDS011;38661;53.152;5.846;2022-07-21T00:56:52;38.53;;;32.55;;
52786;SDS011;38661;53.152;5.846;2022-07-21T00:59:18;38.42;;;33.75;;
52786;SDS011;38661;53.152;5.846;2022-07-21T01:01:44;40.45;;;35.47;;
52786;SDS011;38661;53.152;5.846;2022-07-21T01:04:09;45.55;;;36.95;;
52786;SDS011;38661;53.152;5.846;2022-07-21T01:06:35;40.45;;;36.15;;
52786;SDS011;38661;53.152;5.846;2022-07-21T01:09:01;40.20;;;35.88;;
52786;SDS011;38661;53.152;5.846;2022-07-21T01:11:27;45.05;;;38.38;;
52786;SDS011;38661;53.152;5.846;2022-07-21T01:13:53;55.55;;;41.92;;
52786;SDS011;38661;53.152;5.846;2022-07-21T01:16:19;46.60;;;39.00;;
52786;SDS011;38661;53.152;5.846;2022-07-21T01:18:45;46.47;;;38.17;;
52786;SDS011;38661;53.152;5.846;2022-07-21T01:21:28;46.65;;;37.45;;
52786;SDS011;38661;53.152;5.846;2022-07-21T01:23:56;41.47;;;36.08;;
52786;SDS011;38661;53.152;5.846;2022-07-21T01:26:22;42.08;;;37.08;;
52786;SDS011;38661;53.152;5.846;2022-07-21T01:28:48;49.08;;;38.50;;
52786;SDS011;38661;53.152;5.846;2022-07-21T01:31:13;40.35;;;35.88;;
52786;SDS011;38661;53.152;5.846;2022-07-21T01:33:40;43.95;;;38.00;;
52786;SDS011;38661;53.152;5.846;2022-07-21T01:36:08;47.00;;;37.63;;
52786;SDS011;38661;53.152;5.846;2022-07-21T01:38:33;31.33;;;27.38;;
52786;SDS011;38661;53.152;5.846;2022-07-21T01:41:17;40.63;;;33.17;;
52786;SDS011;38661;53.152;5.846;2022-07-21T01:43:56;38.60;;;33.28;;
52786;SDS011;38661;53.152;5.846;2022-07-21T01:46:22;43.63;;;35.28;;
52786;SDS011;38661;53.152;5.846;2022-07-21T01:48:47;34.13;;;26.25;;
52786;SDS011;38661;53.152;5.846;2022-07-21T01:51:13;31.75;;;28.40;;
52786;SDS011;38661;53.152;5.846;2022-07-21T01:53:39;37.05;;;31.92;;
52786;SDS011;38661;53.152;5.846;2022-07-21T01:56:05;34.67;;;30.90;;
52786;SDS011;38661;53.152;5.846;2022-07-21T01:58:32;43.17;;;33.92;;
52786;SDS011;38661;53.152;5.846;2022-07-21T02:00:57;35.08;;;30.88;;
52786;SDS011;38661;53.152;5.846;2022-07-21T02:03:23;33.60;;;30.08;;
52786;SDS011;38661;53.152;5.846;2022-07-21T02:05:49;29.33;;;25.45;;
52786;SDS011;38661;53.152;5.846;2022-07-21T02:08:15;35.53;;;29.15;;
52786;SDS011;38661;53.152;5.846;2022-07-21T02:10:41;25.95;;;23.25;;
52786;SDS011;38661;53.152;5.846;2022-07-21T02:13:07;40.72;;;30.80;;
52786;SDS011;38661;53.152;5.846;2022-07-21T02:15:33;43.90;;;35.80;;
52786;SDS011;38661;53.152;5.846;2022-07-21T02:17:59;48.13;;;37.85;;
52786;SDS011;38661;53.152;5.846;2022-07-21T02:20:24;47.78;;;39.53;;
52786;SDS011;38661;53.152;5.846;2022-07-21T02:22:51;35.25;;;29.10;;
52786;SDS011;38661;53.152;5.846;2022-07-21T02:25:17;44.83;;;36.42;;
52786;SDS011;38661;53.152;5.846;2022-07-21T02:27:43;47.78;;;38.13;;
52786;SDS011;38661;53.152;5.846;2022-07-21T02:30:10;41.97;;;36.03;;
52786;SDS011;38661;53.152;5.846;2022-07-21T02:32:36;31.02;;;27.65;;
52786;SDS011;38661;53.152;5.846;2022-07-21T02:35:02;41.63;;;36.00;;
52786;SDS011;38661;53.152;5.846;2022-07-21T02:37:28;38.40;;;33.90;;
52786;SDS011;38661;53.152;5.846;2022-07-21T02:39:54;39.67;;;34.97;;
52786;SDS011;38661;53.152;5.846;2022-07-21T02:42:19;48.30;;;37.97;;
52786;SDS011;38661;53.152;5.846;2022-07-21T02:44:45;45.45;;;36.75;;
52786;SDS011;38661;53.152;5.846;2022-07-21T02:47:11;39.38;;;34.45;;
52786;SDS011;38661;53.152;5.846;2022-07-21T02:49:37;36.47;;;31.88;;
52786;SDS011;38661;53.152;5.846;2022-07-21T02:52:02;56.22;;;41.55;;
52786;SDS011;38661;53.152;5.846;2022-07-21T02:54:28;52.70;;;41.95;;
52786;SDS011;38661;53.152;5.846;2022-07-21T02:56:54;52.85;;;40.80;;
52786;SDS011;38661;53.152;5.846;2022-07-21T02:59:20;60.13;;;43.85;;
52786;SDS011;38661;53.152;5.846;2022-07-21T03:01:45;50.08;;;40.50;;
52786;SDS011;38661;53.152;5.846;2022-07-21T03:04:11;36.08;;;28.90;;
52786;SDS011;38661;53.152;5.846;2022-07-21T03:06:37;51.53;;;40.72;;
52786;SDS011;38661;53.152;5.846;2022-07-21T03:09:03;44.85;;;37.55;;
52786;SDS011;38661;53.152;5.846;2022-07-21T03:11:29;56.03;;;43.22;;
52786;SDS011;38661;53.152;5.846;2022-07-21T03:13:54;42.38;;;36.78;;
52786;SDS011;38661;53.152;5.846;2022-07-21T03:16:20;44.13;;;36.70;;
52786;SDS011;38661;53.152;5.846;2022-07-21T03:18:46;55.63;;;43.22;;
52786;SDS011;38661;53.152;5.846;2022-07-21T03:21:12;56.58;;;42.65;;
52786;SDS011;38661;53.152;5.846;2022-07-21T03:23:38;52.58;;;41.30;;
52786;SDS011;38661;53.152;5.846;2022-07-21T03:26:03;58.78;;;44.88;;
52786;SDS011;38661;53.152;5.846;2022-07-21T03:28:29;58.20;;;43.30;;
52786;SDS011;38661;53.152;5.846;2022-07-21T03:30:55;54.03;;;42.38;;
52786;SDS011;38661;53.152;5.846;2022-07-21T03:33:21;63.33;;;44.33;;
52786;SDS011;38661;53.152;5.846;2022-07-21T03:35:46;32.78;;;28.52;;
52786;SDS011;38661;53.152;5.846;2022-07-21T03:38:12;56.13;;;41.67;;
52786;SDS011;38661;53.152;5.846;2022-07-21T03:40:38;49.30;;;38.67;;
52786;SDS011;38661;53.152;5.846;2022-07-21T03:43:05;54.40;;;40.60;;
52786;SDS011;38661;53.152;5.846;2022-07-21T03:45:32;46.03;;;36.70;;
52786;SDS011;38661;53.152;5.846;2022-07-21T03:47:59;47.45;;;36.90;;
52786;SDS011;38661;53.152;5.846;2022-07-21T03:50:27;46.45;;;37.13;;
52786;SDS011;38661;53.152;5.846;2022-07-21T03:52:53;51.75;;;38.40;;
52786;SDS011;38661;53.152;5.846;2022-07-21T03:55:19;52.42;;;39.53;;
52786;SDS011;38661;53.152;5.846;2022-07-21T03:57:52;49.13;;;37.08;;
52786;SDS011;38661;53.152;5.846;2022-07-21T04:00:26;35.97;;;30.25;;
52786;SDS011;38661;53.152;5.846;2022-07-21T04:03:00;33.92;;;29.17;;
52786;SDS011;38661;53.152;5.846;2022-07-21T04:05:27;33.03;;;27.45;;
52786;SDS011;38661;53.152;5.846;2022-07-21T04:07:53;40.67;;;33.47;;
52786;SDS011;38661;53.152;5.846;2022-07-21T04:10:21;30.85;;;26.20;;
52786;SDS011;38661;53.152;5.846;2022-07-21T04:12:51;41.78;;;34.75;;
52786;SDS011;38661;53.152;5.846;2022-07-21T04:15:18;40.95;;;32.72;;
52786;SDS011;38661;53.152;5.846;2022-07-21T04:17:44;42.50;;;35.90;;
52786;SDS011;38661;53.152;5.846;2022-07-21T04:20:10;38.47;;;32.90;;
52786;SDS011;38661;53.152;5.846;2022-07-21T04:22:39;44.78;;;35.88;;
52786;SDS011;38661;53.152;5.846;2022-07-21T04:25:05;49.58;;;37.78;;
52786;SDS011;38661;53.152;5.846;2022-07-21T04:27:32;26.65;;;23.83;;
52786;SDS011;38661;53.152;5.846;2022-07-21T04:29:59;47.17;;;36.53;;
52786;SDS011;38661;53.152;5.846;2022-07-21T04:32:26;52.80;;;39.28;;
52786;SDS011;38661;53.152;5.846;2022-07-21T04:34:51;52.00;;;38.65;;
52786;SDS011;38661;53.152;5.846;2022-07-21T04:37:17;50.47;;;37.83;;
52786;SDS011;38661;53.152;5.846;2022-07-21T04:39:43;44.65;;;36.35;;
52786;SDS011;38661;53.152;5.846;2022-07-21T04:42:08;42.38;;;34.17;;
52786;SDS011;38661;53.152;5.846;2022-07-21T04:44:34;45.83;;;37.50;;
52786;SDS011;38661;53.152;5.846;2022-07-21T04:47:00;50.92;;;39.33;;
52786;SDS011;38661;53.152;5.846;2022-07-21T04:49:25;52.70;;;39.90;;
52786;SDS011;38661;53.152;5.846;2022-07-21T04:51:51;52.83;;;38.90;;
52786;SDS011;38661;53.152;5.846;2022-07-21T04:54:17;45.05;;;36.08;;
52786;SDS011;38661;53.152;5.846;2022-07-21T04:56:43;47.22;;;38.47;;
52786;SDS011;38661;53.152;5.846;2022-07-21T04:59:09;45.17;;;37.58;;
52786;SDS011;38661;53.152;5.846;2022-07-21T05:01:35;49.75;;;39.15;;
52786;SDS011;38661;53.152;5.846;2022-07-21T05:04:02;48.08;;;38.85;;
52786;SDS011;38661;53.152;5.846;2022-07-21T05:06:29;45.97;;;36.03;;
52786;SDS011;38661;53.152;5.846;2022-07-21T05:08:54;50.17;;;39.38;;
52786;SDS011;38661;53.152;5.846;2022-07-21T05:11:20;43.00;;;34.95;;
52786;SDS011;38661;53.152;5.846;2022-07-21T05:13:46;43.50;;;34.95;;
52786;SDS011;38661;53.152;5.846;2022-07-21T05:16:11;44.15;;;37.20;;
52786;SDS011;38661;53.152;5.846;2022-07-21T05:18:37;39.80;;;34.42;;
52786;SDS011;38661;53.152;5.846;2022-07-21T05:21:03;40.97;;;33.15;;
52786;SDS011;38661;53.152;5.846;2022-07-21T05:23:29;30.48;;;24.42;;
52786;SDS011;38661;53.152;5.846;2022-07-21T05:25:54;29.77;;;23.33;;
52786;SDS011;38661;53.152;5.846;2022-07-21T05:28:20;30.48;;;23.40;;
52786;SDS011;38661;53.152;5.846;2022-07-21T05:30:46;30.02;;;22.25;;
52786;SDS011;38661;53.152;5.846;2022-07-21T05:33:11;23.98;;;19.42;;
52786;SDS011;38661;53.152;5.846;2022-07-21T05:35:37;26.42;;;19.75;;
52786;SDS011;38661;53.152;5.846;2022-07-21T05:38:03;27.08;;;18.45;;
52786;SDS011;38661;53.152;5.846;2022-07-21T05:40:29;19.48;;;15.95;;
52786;SDS011;38661;53.152;5.846;2022-07-21T05:42:54;26.33;;;16.58;;
52786;SDS011;38661;53.152;5.846;2022-07-21T05:45:20;21.48;;;14.85;;
52786;SDS011;38661;53.152;5.846;2022-07-21T05:47:46;21.27;;;17.63;;
52786;SDS011;38661;53.152;5.846;2022-07-21T05:50:11;23.20;;;16.58;;
52786;SDS011;38661;53.152;5.846;2022-07-21T05:52:38;25.13;;;18.80;;
52786;SDS011;38661;53.152;5.846;2022-07-21T05:55:04;24.40;;;18.92;;
52786;SDS011;38661;53.152;5.846;2022-07-21T05:57:30;25.60;;;19.38;;
52786;SDS011;38661;53.152;5.846;2022-07-21T05:59:56;20.70;;;17.85;;
52786;SDS011;38661;53.152;5.846;2022-07-21T06:02:22;27.05;;;20.67;;
52786;SDS011;38661;53.152;5.846;2022-07-21T06:04:48;22.73;;;18.58;;
52786;SDS011;38661;53.152;5.846;2022-07-21T06:07:14;20.55;;;17.05;;
52786;SDS011;38661;53.152;5.846;2022-07-21T06:09:40;23.52;;;18.30;;
52786;SDS011;38661;53.152;5.846;2022-07-21T06:12:05;19.90;;;14.98;;
52786;SDS011;38661;53.152;5.846;2022-07-21T06:14:31;22.38;;;16.30;;
52786;SDS011;38661;53.152;5.846;2022-07-21T06:16:57;21.02;;;17.83;;
52786;SDS011;38661;53.152;5.846;2022-07-21T06:19:22;21.45;;;17.35;;
52786;SDS011;38661;53.152;5.846;2022-07-21T06:21:48;27.08;;;21.40;;
52786;SDS011;38661;53.152;5.846;2022-07-21T06:24:14;24.90;;;21.65;;
52786;SDS011;38661;53.152;5.846;2022-07-21T06:26:39;22.23;;;18.85;;
52786;SDS011;38661;53.152;5.846;2022-07-21T06:29:06;23.50;;;18.73;;
52786;SDS011;38661;53.152;5.846;2022-07-21T06:31:32;24.48;;;18.98;;
52786;SDS011;38661;53.152;5.846;2022-07-21T06:33:58;22.58;;;19.67;;
52786;SDS011;38661;53.152;5.846;2022-07-21T06:36:24;21.52;;;19.25;;
52786;SDS011;38661;53.152;5.846;2022-07-21T06:38:50;21.58;;;19.38;;
52786;SDS011;38661;53.152;5.846;2022-07-21T06:41:15;23.30;;;20.55;;
52786;SDS011;38661;53.152;5.846;2022-07-21T06:43:41;25.50;;;22.08;;
52786;SDS011;38661;53.152;5.846;2022-07-21T06:46:07;23.80;;;21.30;;
52786;SDS011;38661;53.152;5.846;2022-07-21T06:48:32;24.15;;;21.65;;
52786;SDS011;38661;53.152;5.846;2022-07-21T06:50:58;24.30;;;21.70;;
52786;SDS011;38661;53.152;5.846;2022-07-21T06:53:25;24.98;;;22.38;;
52786;SDS011;38661;53.152;5.846;2022-07-21T06:55:52;27.13;;;24.20;;
52786;SDS011;38661;53.152;5.846;2022-07-21T06:58:19;29.00;;;24.85;;
52786;SDS011;38661;53.152;5.846;2022-07-21T07:00:47;26.55;;;23.75;;
52786;SDS011;38661;53.152;5.846;2022-07-21T07:03:14;27.35;;;24.33;;
52786;SDS011;38661;53.152;5.846;2022-07-21T07:05:41;30.08;;;26.95;;
52786;SDS011;38661;53.152;5.846;2022-07-21T07:08:08;30.08;;;26.90;;
52786;SDS011;38661;53.152;5.846;2022-07-21T07:10:34;26.58;;;23.13;;
52786;SDS011;38661;53.152;5.846;2022-07-21T07:12:59;29.02;;;26.00;;
52786;SDS011;38661;53.152;5.846;2022-07-21T07:15:26;30.30;;;27.00;;
52786;SDS011;38661;53.152;5.846;2022-07-21T07:17:52;32.22;;;27.25;;
52786;SDS011;38661;53.152;5.846;2022-07-21T07:20:19;29.00;;;26.00;;
52786;SDS011;38661;53.152;5.846;2022-07-21T07:22:45;27.77;;;24.70;;
52786;SDS011;38661;53.152;5.846;2022-07-21T07:25:11;29.45;;;24.55;;
52786;SDS011;38661;53.152;5.846;2022-07-21T07:27:36;28.13;;;25.13;;
52786;SDS011;38661;53.152;5.846;2022-07-21T07:30:03;27.02;;;21.25;;
52786;SDS011;38661;53.152;5.846;2022-07-21T07:32:29;24.27;;;21.65;;
52786;SDS011;38661;53.152;5.846;2022-07-21T07:34:54;25.10;;;19.90;;
52786;SDS011;38661;53.152;5.846;2022-07-21T07:37:20;21.88;;;19.48;;
52786;SDS011;38661;53.152;5.846;2022-07-21T07:39:46;23.42;;;18.27;;
52786;SDS011;38661;53.152;5.846;2022-07-21T07:42:12;19.30;;;15.45;;
52786;SDS011;38661;53.152;5.846;2022-07-21T07:44:37;20.63;;;18.17;;
52786;SDS011;38661;53.152;5.846;2022-07-21T07:47:03;21.40;;;16.73;;
52786;SDS011;38661;53.152;5.846;2022-07-21T07:49:30;23.63;;;18.42;;
52786;SDS011;38661;53.152;5.846;2022-07-21T07:51:56;15.23;;;13.63;;
52786;SDS011;38661;53.152;5.846;2022-07-21T07:54:23;16.27;;;14.60;;
52786;SDS011;38661;53.152;5.846;2022-07-21T07:56:49;21.77;;;17.92;;
52786;SDS011;38661;53.152;5.846;2022-07-21T07:59:14;21.52;;;18.45;;
52786;SDS011;38661;53.152;5.846;2022-07-21T08:01:40;24.23;;;19.85;;
52786;SDS011;38661;53.152;5.846;2022-07-21T08:04:06;23.55;;;21.08;;
52786;SDS011;38661;53.152;5.846;2022-07-21T08:06:32;26.67;;;24.05;;
52786;SDS011;38661;53.152;5.846;2022-07-21T08:08:57;23.83;;;21.45;;
52786;SDS011;38661;53.152;5.846;2022-07-21T08:11:23;28.80;;;25.70;;
52786;SDS011;38661;53.152;5.846;2022-07-21T08:13:49;29.48;;;26.40;;
52786;SDS011;38661;53.152;5.846;2022-07-21T08:16:15;25.52;;;22.83;;
52786;SDS011;38661;53.152;5.846;2022-07-21T08:18:41;27.17;;;24.38;;
52786;SDS011;38661;53.152;5.846;2022-07-21T08:21:07;32.30;;;28.90;;
52786;SDS011;38661;53.152;5.846;2022-07-21T08:23:34;25.30;;;22.73;;
52786;SDS011;38661;53.152;5.846;2022-07-21T08:25:59;33.13;;;29.05;;
52786;SDS011;38661;53.152;5.846;2022-07-21T08:28:25;33.63;;;30.02;;
52786;SDS011;38661;53.152;5.846;2022-07-21T08:30:51;33.30;;;29.92;;
52786;SDS011;38661;53.152;5.846;2022-07-21T08:33:17;32.85;;;29.42;;
52786;SDS011;38661;53.152;5.846;2022-07-21T08:35:43;33.42;;;29.98;;
52786;SDS011;38661;53.152;5.846;2022-07-21T08:38:09;34.38;;;30.77;;
52786;SDS011;38661;53.152;5.846;2022-07-21T08:40:40;33.42;;;29.85;;
52786;SDS011;38661;53.152;5.846;2022-07-21T08:43:08;29.60;;;26.63;;
52786;SDS011;38661;53.152;5.846;2022-07-21T08:45:36;30.33;;;27.25;;
52786;SDS011;38661;53.152;5.846;2022-07-21T08:48:02;30.42;;;27.40;;
52786;SDS011;38661;53.152;5.846;2022-07-21T08:50:29;24.98;;;22.58;;
52786;SDS011;38661;53.152;5.846;2022-07-21T08:52:59;19.88;;;17.98;;
52786;SDS011;38661;53.152;5.846;2022-07-21T08:55:24;17.88;;;16.15;;
52786;SDS011;38661;53.152;5.846;2022-07-21T08:57:52;17.45;;;15.85;;
52786;SDS011;38661;53.152;5.846;2022-07-21T09:00:18;19.88;;;17.98;;
52786;SDS011;38661;53.152;5.846;2022-07-21T09:02:44;23.67;;;21.48;;
52786;SDS011;38661;53.152;5.846;2022-07-21T09:05:09;26.85;;;24.25;;
52786;SDS011;38661;53.152;5.846;2022-07-21T09:07:52;27.48;;;24.67;;
52786;SDS011;38661;53.152;5.846;2022-07-21T09:10:26;31.35;;;28.00;;
52786;SDS011;38661;53.152;5.846;2022-07-21T09:12:54;33.00;;;29.65;;
52786;SDS011;38661;53.152;5.846;2022-07-21T09:15:22;30.85;;;27.75;;
52786;SDS011;38661;53.152;5.846;2022-07-21T09:18:09;30.60;;;27.48;;
52786;SDS011;38661;53.152;5.846;2022-07-21T09:20:50;33.28;;;29.77;;
52786;SDS011;38661;53.152;5.846;2022-07-21T09:23:19;32.10;;;28.65;;
52786;SDS011;38661;53.152;5.846;2022-07-21T09:25:51;30.33;;;27.23;;
52786;SDS011;38661;53.152;5.846;2022-07-21T09:28:20;27.25;;;24.75;;
52786;SDS011;38661;53.152;5.846;2022-07-21T09:30:55;25.73;;;23.20;;
52786;SDS011;38661;53.152;5.846;2022-07-21T09:33:26;22.10;;;19.95;;
52786;SDS011;38661;53.152;5.846;2022-07-21T09:38:27;19.95;;;17.85;;
52786;SDS011;38661;53.152;5.846;2022-07-21T09:40:53;20.45;;;18.45;;
52786;SDS011;38661;53.152;5.846;2022-07-21T09:46:19;25.83;;;22.98;;
52786;SDS011;38661;53.152;5.846;2022-07-21T09:48:50;27.13;;;24.30;;
52786;SDS011;38661;53.152;5.846;2022-07-21T09:53:57;28.90;;;25.90;;
52786;SDS011;38661;53.152;5.846;2022-07-21T09:56:24;31.15;;;27.55;;
52786;SDS011;38661;53.152;5.846;2022-07-21T09:58:52;30.85;;;27.58;;
52786;SDS011;38661;53.152;5.846;2022-07-21T10:01:19;29.67;;;26.40;;
52786;SDS011;38661;53.152;5.846;2022-07-21T10:03:46;27.92;;;25.23;;
52786;SDS011;38661;53.152;5.846;2022-07-21T10:06:13;25.52;;;22.95;;
52786;SDS011;38661;53.152;5.846;2022-07-21T10:08:42;28.48;;;25.38;;
52786;SDS011;38661;53.152;5.846;2022-07-21T10:11:09;26.73;;;24.10;;
52786;SDS011;38661;53.152;5.846;2022-07-21T10:13:35;27.25;;;24.35;;
52786;SDS011;38661;53.152;5.846;2022-07-21T10:16:03;29.33;;;26.23;;
52786;SDS011;38661;53.152;5.846;2022-07-21T10:18:35;29.23;;;24.88;;
52786;SDS011;38661;53.152;5.846;2022-07-21T10:21:10;28.30;;;25.23;;
52786;SDS011;38661;53.152;5.846;2022-07-21T10:23:46;32.15;;;27.25;;
52786;SDS011;38661;53.152;5.846;2022-07-21T10:26:18;28.40;;;25.50;;
52786;SDS011;38661;53.152;5.846;2022-07-21T10:28:44;21.95;;;19.10;;
52786;SDS011;38661;53.152;5.846;2022-07-21T10:31:17;21.98;;;19.77;;
52786;SDS011;38661;53.152;5.846;2022-07-21T10:39:11;17.92;;;16.23;;
52786;SDS011;38661;53.152;5.846;2022-07-21T10:41:43;15.93;;;14.43;;
52786;SDS011;38661;53.152;5.846;2022-07-21T10:47:10;17.50;;;15.70;;
52786;SDS011;38661;53.152;5.846;2022-07-21T10:57:45;18.85;;;16.95;;
52786;SDS011;38661;53.152;5.846;2022-07-21T11:00:19;19.70;;;17.92;;
52786;SDS011;38661;53.152;5.846;2022-07-21T11:02:49;15.50;;;14.10;;
52786;SDS011;38661;53.152;5.846;2022-07-21T11:05:17;15.73;;;14.13;;
52786;SDS011;38661;53.152;5.846;2022-07-21T11:10:36;15.68;;;13.95;;
52786;SDS011;38661;53.152;5.846;2022-07-21T11:13:02;17.25;;;14.45;;
52786;SDS011;38661;53.152;5.846;2022-07-21T11:18:19;19.20;;;17.27;;
52786;SDS011;38661;53.152;5.846;2022-07-21T11:23:34;15.80;;;14.20;;
52786;SDS011;38661;53.152;5.846;2022-07-21T11:26:04;15.88;;;14.38;;
52786;SDS011;38661;53.152;5.846;2022-07-21T11:28:31;19.40;;;17.50;;
52786;SDS011;38661;53.152;5.846;2022-07-21T11:31:11;16.90;;;15.13;;
52786;SDS011;38661;53.152;5.846;2022-07-21T11:33:39;14.80;;;12.98;;
52786;SDS011;38661;53.152;5.846;2022-07-21T11:36:07;15.52;;;14.02;;
52786;SDS011;38661;53.152;5.846;2022-07-21T11:38:32;13.88;;;12.57;;
52786;SDS011;38661;53.152;5.846;2022-07-21T11:43:44;12.32;;;11.10;;
52786;SDS011;38661;53.152;5.846;2022-07-21T11:46:11;13.98;;;12.60;;
52786;SDS011;38661;53.152;5.846;2022-07-21T11:48:38;14.00;;;12.63;;
52786;SDS011;38661;53.152;5.846;2022-07-21T11:51:04;15.57;;;13.98;;
52786;SDS011;38661;53.152;5.846;2022-07-21T11:53:30;14.88;;;13.38;;
52786;SDS011;38661;53.152;5.846;2022-07-21T11:55:57;13.85;;;12.45;;
52786;SDS011;38661;53.152;5.846;2022-07-21T11:58:23;14.82;;;13.43;;
52786;SDS011;38661;53.152;5.846;2022-07-21T12:00:49;16.27;;;13.10;;
52786;SDS011;38661;53.152;5.846;2022-07-21T12:03:32;12.60;;;11.40;;
52786;SDS011;38661;53.152;5.846;2022-07-21T12:05:59;12.30;;;11.13;;
52786;SDS011;38661;53.152;5.846;2022-07-21T12:08:26;13.77;;;12.38;;
52786;SDS011;38661;53.152;5.846;2022-07-21T12:11:06;12.23;;;10.82;;
52786;SDS011;38661;53.152;5.846;2022-07-21T12:13:59;12.30;;;11.10;;
52786;SDS011;38661;53.152;5.846;2022-07-21T12:16:26;14.10;;;12.73;;
52786;SDS011;38661;53.152;5.846;2022-07-21T12:21:51;15.63;;;13.95;;
52786;SDS011;38661;53.152;5.846;2022-07-21T12:24:18;15.25;;;13.63;;
52786;SDS011;38661;53.152;5.846;2022-07-21T12:26:45;8.85;;;7.97;;
52786;SDS011;38661;53.152;5.846;2022-07-21T12:29:32;6.93;;;6.25;;
52786;SDS011;38661;53.152;5.846;2022-07-21T12:32:00;7.63;;;6.93;;
52786;SDS011;38661;53.152;5.846;2022-07-21T12:34:26;8.35;;;7.57;;
52786;SDS011;38661;53.152;5.846;2022-07-21T12:36:51;9.02;;;8.13;;
52786;SDS011;38661;53.152;5.846;2022-07-21T12:39:21;8.90;;;8.00;;
52786;SDS011;38661;53.152;5.846;2022-07-21T12:42:11;9.68;;;8.88;;
52786;SDS011;38661;53.152;5.846;2022-07-21T12:44:52;10.73;;;9.75;;
52786;SDS011;38661;53.152;5.846;2022-07-21T12:47:19;11.48;;;10.45;;
52786;SDS011;38661;53.152;5.846;2022-07-21T12:49:56;11.20;;;9.63;;
52786;SDS011;38661;53.152;5.846;2022-07-21T12:52:26;11.15;;;10.05;;
52786;SDS011;38661;53.152;5.846;2022-07-21T12:54:53;11.20;;;10.10;;
52786;SDS011;38661;53.152;5.846;2022-07-21T12:57:20;10.57;;;9.57;;
52786;SDS011;38661;53.152;5.846;2022-07-21T12:59:45;12.15;;;10.43;;
52786;SDS011;38661;53.152;5.846;2022-07-21T13:02:11;11.63;;;10.43;;
52786;SDS011;38661;53.152;5.846;2022-07-21T13:04:37;11.40;;;10.30;;
52786;SDS011;38661;53.152;5.846;2022-07-21T13:07:02;10.60;;;9.40;;
52786;SDS011;38661;53.152;5.846;2022-07-21T13:09:28;10.82;;;9.73;;
52786;SDS011;38661;53.152;5.846;2022-07-21T13:11:54;12.43;;;11.10;;
52786;SDS011;38661;53.152;5.846;2022-07-21T13:14:19;10.40;;;9.40;;
52786;SDS011;38661;53.152;5.846;2022-07-21T13:16:45;13.95;;;11.23;;
52786;SDS011;38661;53.152;5.846;2022-07-21T13:19:11;9.85;;;8.77;;
52786;SDS011;38661;53.152;5.846;2022-07-21T13:21:36;10.63;;;9.52;;
52786;SDS011;38661;53.152;5.846;2022-07-21T13:24:02;14.95;;;10.32;;
52786;SDS011;38661;53.152;5.846;2022-07-21T13:26:28;9.15;;;7.63;;
52786;SDS011;38661;53.152;5.846;2022-07-21T13:28:54;7.63;;;6.90;;
52786;SDS011;38661;53.152;5.846;2022-07-21T13:31:19;9.10;;;8.20;;
52786;SDS011;38661;53.152;5.846;2022-07-21T13:33:46;8.45;;;7.65;;
52786;SDS011;38661;53.152;5.846;2022-07-21T13:36:12;8.05;;;7.05;;
52786;SDS011;38661;53.152;5.846;2022-07-21T13:38:38;11.57;;;7.82;;
52786;SDS011;38661;53.152;5.846;2022-07-21T13:41:04;9.65;;;7.82;;
52786;SDS011;38661;53.152;5.846;2022-07-21T13:43:30;7.97;;;7.10;;
52786;SDS011;38661;53.152;5.846;2022-07-21T13:45:56;8.98;;;8.13;;
52786;SDS011;38661;53.152;5.846;2022-07-21T13:48:22;10.75;;;8.38;;
52786;SDS011;38661;53.152;5.846;2022-07-21T13:50:48;8.25;;;7.45;;
52786;SDS011;38661;53.152;5.846;2022-07-21T13:53:13;8.20;;;6.93;;
52786;SDS011;38661;53.152;5.846;2022-07-21T13:55:39;6.88;;;6.15;;
52786;SDS011;38661;53.152;5.846;2022-07-21T13:58:05;8.30;;;7.50;;
52786;SDS011;38661;53.152;5.846;2022-07-21T14:00:32;7.57;;;6.30;;
52786;SDS011;38661;53.152;5.846;2022-07-21T14:02:57;9.55;;;7.22;;
52786;SDS011;38661;53.152;5.846;2022-07-21T14:05:23;8.52;;;7.18;;
52786;SDS011;38661;53.152;5.846;2022-07-21T14:07:49;7.47;;;6.07;;
52786;SDS011;38661;53.152;5.846;2022-07-21T14:10:15;7.80;;;6.65;;
52786;SDS011;38661;53.152;5.846;2022-07-21T14:12:40;8.43;;;7.57;;
52786;SDS011;38661;53.152;5.846;2022-07-21T14:15:06;8.38;;;7.57;;
52786;SDS011;38661;53.152;5.846;2022-07-21T14:17:33;9.88;;;8.48;;
52786;SDS011;38661;53.152;5.846;2022-07-21T14:19:58;11.45;;;9.40;;
52786;SDS011;38661;53.152;5.846;2022-07-21T14:22:24;11.18;;;9.85;;
52786;SDS011;38661;53.152;5.846;2022-07-21T14:24:50;10.80;;;9.57;;
52786;SDS011;38661;53.152;5.846;2022-07-21T14:27:34;9.93;;;8.93;;
52786;SDS011;38661;53.152;5.846;2022-07-21T14:29:59;8.40;;;7.30;;
52786;SDS011;38661;53.152;5.846;2022-07-21T14:32:26;12.18;;;8.27;;
52786;SDS011;38661;53.152;5.846;2022-07-21T14:34:52;7.35;;;6.65;;
52786;SDS011;38661;53.152;5.846;2022-07-21T14:37:18;9.43;;;8.38;;
52786;SDS011;38661;53.152;5.846;2022-07-21T14:39:45;8.60;;;7.47;;
52786;SDS011;38661;53.152;5.846;2022-07-21T14:42:12;10.90;;;8.90;;
52786;SDS011;38661;53.152;5.846;2022-07-21T14:44:38;10.63;;;8.50;;
52786;SDS011;38661;53.152;5.846;2022-07-21T14:47:04;13.02;;;8.13;;
52786;SDS011;38661;53.152;5.846;2022-07-21T14:49:31;10.40;;;7.35;;
52786;SDS011;38661;53.152;5.846;2022-07-21T14:51:57;9.07;;;5.43;;
52786;SDS011;38661;53.152;5.846;2022-07-21T14:54:23;9.77;;;5.35;;
52786;SDS011;38661;53.152;5.846;2022-07-21T14:56:49;12.23;;;5.57;;
52786;SDS011;38661;53.152;5.846;2022-07-21T14:59:15;10.20;;;5.25;;
52786;SDS011;38661;53.152;5.846;2022-07-21T15:01:40;9.70;;;4.95;;
52786;SDS011;38661;53.152;5.846;2022-07-21T15:04:06;7.05;;;3.30;;